Covel, West Virginia
Current Conditions -  °F | °C
As of 11:52 PM on Friday 28 Nov 2014 (Local Time) from KBLF Reporting Station
Clear Clear  
Wind Chill: 27°   Ceiling: Unl
Heat Index: 27°   Visibility: 10mi
Dew Point: 15°   Wind: 0mph
Humidity: 61%   Direction: NA
Pressure: 30.14"   Gusts: NA
Location:  37.49°N, 81.32°W
Report Text: KBLF 290452Z AUTO 00000KT 10SM CLR M03/M09 A3014 RMK AO2 SLP232 T10281094 410171056 $
Loading
Personal Weather Stations






























Interactive Weather Map New forecast layout! Learn more

10-Day Weather Forecast

Advertisements
Track Severe Weather on mobile